createdAt,value
2022-09-05T00:00:31.443Z,85.09
2022-09-05T00:02:41.814Z,85.61
2022-09-05T00:05:01.149Z,86.10
2022-09-05T00:07:09.996Z,85.67
2022-09-05T00:09:56.353Z,85.88
2022-09-05T00:12:01.323Z,85.98
2022-09-05T00:14:34.281Z,85.85
2022-09-05T00:16:52.908Z,85.97
2022-09-05T00:24:18.613Z,86.75
2022-09-05T00:24:34.657Z,86.56
2022-09-05T00:24:43.560Z,86.76
2022-09-05T00:26:52.279Z,86.50
2022-09-05T00:29:03.261Z,86.60
2022-09-05T00:31:53.774Z,86.69
2022-09-05T00:33:51.142Z,87.03
2022-09-05T00:36:08.060Z,87.03
2022-09-05T00:38:15.290Z,86.84
2022-09-05T00:40:26.387Z,86.57
2022-09-05T00:42:29.594Z,87.04
2022-09-05T00:44:34.806Z,86.96
2022-09-05T00:46:40.114Z,86.84
2022-09-05T00:48:50.290Z,86.91
2022-09-05T00:51:29.359Z,86.85
2022-09-05T00:53:43.221Z,87.81
2022-09-05T00:55:58.785Z,86.74
2022-09-05T00:58:12.544Z,87.27
2022-09-05T01:00:18.407Z,87.34
2022-09-05T01:02:36.352Z,86.82
2022-09-05T01:04:55.769Z,87.63
2022-09-05T01:07:21.890Z,87.17
2022-09-05T01:09:39.683Z,88.04
2022-09-05T01:11:52.042Z,87.66
2022-09-05T01:14:01.153Z,86.95
2022-09-05T01:16:10.675Z,87.20
2022-09-05T01:18:27.132Z,88.35
2022-09-05T01:20:51.608Z,87.69
2022-09-05T01:23:18.200Z,87.54
2022-09-05T01:25:29.614Z,87.31
2022-09-05T01:29:12.965Z,87.83
2022-09-05T01:30:13.932Z,86.57
2022-09-05T01:32:26.277Z,88.21
2022-09-05T01:34:35.600Z,88.27
2022-09-05T01:36:51.005Z,88.15
2022-09-05T01:40:01.779Z,87.97
2022-09-05T01:41:31.336Z,87.56
2022-09-05T01:43:51.512Z,87.87
2022-09-05T01:46:00.392Z,88.24
2022-09-05T01:48:06.103Z,88.27
2022-09-05T01:50:22.030Z,87.65
2022-09-05T01:52:30.546Z,86.96
2022-09-05T01:54:41.450Z,87.09
2022-09-05T01:56:53.907Z,86.21
2022-09-05T01:59:11.308Z,87.83
2022-09-05T02:01:27.011Z,87.74
2022-09-05T02:03:42.118Z,87.01
2022-09-05T02:06:25.597Z,88.33
2022-09-05T02:08:41.853Z,87.43
2022-09-05T02:10:56.027Z,89.05
2022-09-05T02:13:04.374Z,87.91
2022-09-05T02:15:14.630Z,88.10
2022-09-05T02:17:51.294Z,89.32
2022-09-05T02:19:53.752Z,88.33
2022-09-05T02:22:02.482Z,88.66
2022-09-05T02:24:13.979Z,88.35
2022-09-05T02:26:19.827Z,89.70
2022-09-05T02:28:28.408Z,89.70
2022-09-05T02:30:36.778Z,89.17
2022-09-05T02:32:59.650Z,89.21
2022-09-05T02:35:08.859Z,88.84
2022-09-05T02:37:16.039Z,89.69
2022-09-05T02:45:03.377Z,89.42
2022-09-05T02:45:13.412Z,88.88
2022-09-05T02:45:14.816Z,90.39
2022-09-05T02:47:02.339Z,89.95
2022-09-05T02:49:38.059Z,90.23
2022-09-05T02:57:30.241Z,89.41
2022-09-05T02:57:36.181Z,88.69
2022-09-05T02:57:46.895Z,89.80
2022-09-05T02:59:16.566Z,88.39
2022-09-05T03:01:32.937Z,89.53
2022-09-05T03:03:41.768Z,90.06
2022-09-05T03:05:49.131Z,89.80
2022-09-05T03:08:08.347Z,91.12
2022-09-05T03:10:48.455Z,90.60
2022-09-05T03:13:19.947Z,88.69
2022-09-05T03:16:04.929Z,89.56
2022-09-05T03:18:25.148Z,90.88
2022-09-05T03:23:54.908Z,90.65
2022-09-05T03:26:35.857Z,90.52
2022-09-05T03:29:15.621Z,88.92
2022-09-05T03:31:38.539Z,90.33
2022-09-05T03:33:59.694Z,89.61
2022-09-05T03:36:50.170Z,90.66
2022-09-05T03:39:36.086Z,89.30
2022-09-05T03:41:53.197Z,90.03
2022-09-05T03:44:12.357Z,89.88
2022-09-05T03:46:28.093Z,91.55
2022-09-05T03:49:04.134Z,91.47
2022-09-05T03:57:08.775Z,91.07
2022-09-05T03:57:14.833Z,89.70
2022-09-05T03:57:38.468Z,88.75
2022-09-05T04:00:05.630Z,89.96
2022-09-05T04:08:05.930Z,88.32
2022-09-05T04:08:09.531Z,89.43
2022-09-05T04:08:30.795Z,89.30
2022-09-05T04:09:49.970Z,88.93
2022-09-05T04:11:57.217Z,89.94
2022-09-05T04:14:04.140Z,90.45
2022-09-05T04:16:12.047Z,90.04
2022-09-05T04:18:32.714Z,90.80
2022-09-05T04:20:40.865Z,90.00
2022-09-05T04:23:06.400Z,91.32
2022-09-05T04:25:13.791Z,90.25
2022-09-05T04:27:30.773Z,91.66
2022-09-05T04:29:45.902Z,91.79
2022-09-05T04:32:17.702Z,91.37
2022-09-05T04:34:38.262Z,92.53
2022-09-05T04:36:41.517Z,90.94
2022-09-05T04:38:46.635Z,91.07
2022-09-05T04:40:51.739Z,89.60
2022-09-05T04:42:54.908Z,91.32
2022-09-05T04:45:04.504Z,91.34
2022-09-05T04:47:12.471Z,91.38
2022-09-05T04:49:23.532Z,89.34
2022-09-05T04:52:02.077Z,89.63
2022-09-05T04:54:23.499Z,91.48
2022-09-05T04:56:34.479Z,89.86
2022-09-05T04:59:58.226Z,92.01
2022-09-05T05:06:04.119Z,90.61
2022-09-05T05:06:13.730Z,91.37
2022-09-05T05:06:19.102Z,90.62
2022-09-05T05:08:29.117Z,90.58
2022-09-05T05:14:12.409Z,90.60
2022-09-05T05:17:59.036Z,88.58
2022-09-05T05:18:09.041Z,90.27
2022-09-05T05:18:39.777Z,89.79
2022-09-05T05:20:44.387Z,89.56
2022-09-05T05:22:57.147Z,88.12
2022-09-05T05:25:01.317Z,87.87
2022-09-05T05:27:08.486Z,87.23
2022-09-05T05:29:18.808Z,86.30
2022-09-05T05:31:25.368Z,86.96
2022-09-05T05:33:33.804Z,85.67
2022-09-05T05:35:45.901Z,85.08
2022-09-05T05:37:53.748Z,84.22
2022-09-05T05:40:06.060Z,84.13
2022-09-05T05:42:21.164Z,84.48
2022-09-05T05:44:27.856Z,84.19
2022-09-05T05:46:33.891Z,84.62
2022-09-05T05:48:39.683Z,85.38
2022-09-05T05:50:50.349Z,85.05
2022-09-05T05:53:12.988Z,84.38
2022-09-05T05:55:58.466Z,85.25
2022-09-05T05:58:24.053Z,84.25
2022-09-05T06:00:39.020Z,82.12
2022-09-05T06:03:26.878Z,82.19
2022-09-05T06:06:03.965Z,81.75
2022-09-05T06:11:43.665Z,81.65
2022-09-05T06:14:55.594Z,81.26
2022-09-05T06:14:59.830Z,81.80
2022-09-05T06:17:42.848Z,80.06
2022-09-05T06:22:06.574Z,79.53
2022-09-05T06:23:38.789Z,79.75
2022-09-05T06:26:18.510Z,80.72
2022-09-05T06:28:26.897Z,81.20
2022-09-05T06:30:36.427Z,80.34
2022-09-05T06:33:02.017Z,79.00
2022-09-05T06:35:23.017Z,79.50
2022-09-05T06:37:35.347Z,78.93
2022-09-05T06:39:54.084Z,78.98
2022-09-05T06:42:28.540Z,78.37
2022-09-05T06:44:48.126Z,78.34
2022-09-05T06:47:22.187Z,77.70
2022-09-05T06:49:30.599Z,76.90
2022-09-05T06:52:28.914Z,76.23
2022-09-05T06:54:59.601Z,75.60
2022-09-05T06:57:16.730Z,77.01
2022-09-05T06:59:56.974Z,75.89
2022-09-05T07:02:08.634Z,76.12
2022-09-05T07:05:21.782Z,76.71
2022-09-05T07:07:02.359Z,74.59
2022-09-05T07:09:20.745Z,73.78
2022-09-05T07:11:27.200Z,73.58
2022-09-05T07:13:34.762Z,72.22
2022-09-05T07:15:44.389Z,72.28
2022-09-05T07:18:09.940Z,72.64
2022-09-05T07:20:22.049Z,72.72
2022-09-05T07:22:47.445Z,71.46
2022-09-05T07:24:54.176Z,70.24
2022-09-05T07:27:00.804Z,70.77
2022-09-05T07:29:05.868Z,70.05
2022-09-05T07:31:37.280Z,71.44
2022-09-05T07:33:41.225Z,70.49
2022-09-05T07:35:44.588Z,70.79
2022-09-05T07:37:50.542Z,69.55
2022-09-05T07:39:55.988Z,69.86
2022-09-05T07:42:06.272Z,69.35
2022-09-05T07:44:18.803Z,69.17
2022-09-05T07:46:27.943Z,68.10
2022-09-05T07:48:35.801Z,67.48
2022-09-05T07:54:31.635Z,67.58
2022-09-05T07:57:00.803Z,67.32
2022-09-05T07:57:08.507Z,66.66
2022-09-05T07:58:02.062Z,66.17
2022-09-05T08:00:25.695Z,66.32
2022-09-05T08:02:31.144Z,66.00
2022-09-05T08:04:36.162Z,66.77
2022-09-05T08:07:46.737Z,65.40
2022-09-05T08:10:05.968Z,65.05
2022-09-05T08:11:32.457Z,65.57
2022-09-05T08:13:50.078Z,65.99
2022-09-05T08:16:12.945Z,64.37
2022-09-05T08:18:18.972Z,64.47
2022-09-05T08:20:31.787Z,62.97
2022-09-05T08:22:52.133Z,63.61
2022-09-05T08:25:01.864Z,62.39
2022-09-05T08:27:16.394Z,61.30
2022-09-05T08:29:31.915Z,61.11
2022-09-05T08:31:38.602Z,61.41
2022-09-05T08:33:45.866Z,61.12
2022-09-05T08:35:53.083Z,61.45
2022-09-05T08:38:02.846Z,59.34
2022-09-05T08:40:11.640Z,61.34
2022-09-05T08:42:27.051Z,60.54
2022-09-05T08:46:37.517Z,60.20
2022-09-05T08:47:08.760Z,59.73
2022-09-05T08:49:53.818Z,59.41
2022-09-05T08:51:58.678Z,59.38
2022-09-05T08:54:11.992Z,59.62
2022-09-05T08:56:20.663Z,58.85
2022-09-05T08:59:27.127Z,56.66
2022-09-05T09:01:22.635Z,56.79
2022-09-05T09:03:30.364Z,57.52
2022-09-05T09:06:13.542Z,57.18
2022-09-05T09:08:22.245Z,55.17
2022-09-05T09:10:34.900Z,56.59
2022-09-05T09:13:09.739Z,55.93
2022-09-05T09:15:19.416Z,56.21
2022-09-05T09:17:32.668Z,56.91
2022-09-05T09:19:46.586Z,55.41
2022-09-05T09:21:58.739Z,54.60
2022-09-05T09:24:10.562Z,54.51
2022-09-05T09:26:15.877Z,56.15
2022-09-05T09:28:51.397Z,55.09
2022-09-05T09:30:58.644Z,54.64
2022-09-05T09:33:06.442Z,53.38
2022-09-05T09:35:13.042Z,54.35
2022-09-05T09:37:49.598Z,54.07
2022-09-05T09:40:10.426Z,53.27
2022-09-05T09:42:33.443Z,53.66
2022-09-05T09:45:28.802Z,53.70
2022-09-05T09:47:41.886Z,53.64
2022-09-05T09:50:10.199Z,52.87
2022-09-05T09:52:46.391Z,52.51
2022-09-05T09:55:27.156Z,52.22
2022-09-05T09:58:14.408Z,51.99
2022-09-05T10:00:21.111Z,51.04
2022-09-05T10:06:52.518Z,51.66
2022-09-05T10:10:34.141Z,51.28
2022-09-05T10:10:45.889Z,51.58
2022-09-05T10:11:49.985Z,53.04
2022-09-05T10:14:30.735Z,50.62
2022-09-05T10:17:06.991Z,52.87
2022-09-05T10:22:40.336Z,51.69
2022-09-05T10:25:19.599Z,51.00
2022-09-05T10:27:30.303Z,50.85
2022-09-05T10:30:10.700Z,50.07
2022-09-05T10:35:11.722Z,51.33
2022-09-05T10:35:17.317Z,50.65
2022-09-05T10:37:13.752Z,50.06
2022-09-05T10:39:21.099Z,50.66
2022-09-05T10:41:34.083Z,50.11
2022-09-05T10:43:45.108Z,50.26
2022-09-05T10:45:53.251Z,49.06
2022-09-05T10:48:13.182Z,49.86
2022-09-05T10:50:27.196Z,49.20
2022-09-05T10:52:36.160Z,48.23
2022-09-05T10:54:49.799Z,49.69
2022-09-05T10:57:01.780Z,48.25
2022-09-05T11:02:04.717Z,48.19
2022-09-05T11:02:30.090Z,49.90
2022-09-05T11:04:18.120Z,49.26
2022-09-05T11:06:26.205Z,47.22
2022-09-05T11:08:37.205Z,47.32
2022-09-05T11:10:46.765Z,49.05
2022-09-05T11:13:03.019Z,47.21
2022-09-05T11:15:09.198Z,48.40
2022-09-05T11:17:19.229Z,47.34
2022-09-05T11:19:28.381Z,47.74
2022-09-05T11:21:47.172Z,47.26
2022-09-05T11:23:57.084Z,47.09
2022-09-05T11:26:04.581Z,48.39
2022-09-05T11:28:15.021Z,48.36
2022-09-05T11:30:30.057Z,48.41
2022-09-05T11:39:20.616Z,48.74
2022-09-05T11:39:55.011Z,48.26
2022-09-05T11:40:02.215Z,49.03
2022-09-05T11:41:25.140Z,49.52
2022-09-05T11:44:25.942Z,48.73
2022-09-05T11:46:34.413Z,48.72
2022-09-05T11:49:15.371Z,49.33
2022-09-05T11:51:51.162Z,48.78
2022-09-05T11:54:28.028Z,49.14
2022-09-05T11:57:32.528Z,49.40
2022-09-05T12:00:31.637Z,48.75
2022-09-05T12:02:59.191Z,48.64
2022-09-05T12:05:49.202Z,48.54
2022-09-05T12:07:52.400Z,48.24
2022-09-05T12:10:07.106Z,47.84
2022-09-05T12:12:39.516Z,48.22
2022-09-05T12:14:54.866Z,48.32
2022-09-05T12:17:10.178Z,47.47
2022-09-05T12:19:28.001Z,48.09
2022-09-05T12:21:38.301Z,47.94
2022-09-05T12:24:28.574Z,47.44
2022-09-05T12:27:41.627Z,46.88
2022-09-05T12:29:27.347Z,47.75
2022-09-05T12:32:36.606Z,47.67
2022-09-05T12:36:10.694Z,47.95
2022-09-05T12:40:05.153Z,47.32
2022-09-05T12:40:45.163Z,47.21
2022-09-05T12:41:43.841Z,47.82
2022-09-05T12:44:13.842Z,47.32
2022-09-05T12:46:00.370Z,46.66
2022-09-05T12:48:11.513Z,47.86
2022-09-05T12:50:18.016Z,47.38
2022-09-05T12:52:37.482Z,46.98
2022-09-05T12:54:46.539Z,46.64
2022-09-05T13:00:24.213Z,46.78
2022-09-05T13:02:58.986Z,46.46
2022-09-05T13:03:11.270Z,46.28
2022-09-05T13:04:25.502Z,44.38
2022-09-05T13:06:39.162Z,44.37
2022-09-05T13:08:58.950Z,44.77
2022-09-05T13:14:46.964Z,44.28
2022-09-05T13:15:03.007Z,45.10
2022-09-05T13:15:55.351Z,45.53
2022-09-05T13:18:08.517Z,45.57
2022-09-05T13:20:16.666Z,44.30
2022-09-05T13:22:23.618Z,44.43
2022-09-05T13:24:30.716Z,44.46
2022-09-05T13:26:36.782Z,44.07
2022-09-05T13:28:48.842Z,44.75
2022-09-05T13:35:51.842Z,43.77
2022-09-05T13:38:02.866Z,45.52
2022-09-05T13:38:03.468Z,43.62
2022-09-05T13:38:48.091Z,43.32
2022-09-05T13:40:58.131Z,43.81
2022-09-05T13:43:07.504Z,43.02
2022-09-05T13:45:18.517Z,43.80
2022-09-05T13:47:45.651Z,44.53
2022-09-05T13:49:54.125Z,43.97
2022-09-05T13:52:09.124Z,43.18
2022-09-05T13:54:36.311Z,42.81
2022-09-05T13:56:46.021Z,42.57
2022-09-05T13:58:56.970Z,43.23
2022-09-05T14:01:29.776Z,42.60
2022-09-05T14:09:44.614Z,42.08
2022-09-05T14:11:55.347Z,42.18
2022-09-05T14:14:11.387Z,41.49
2022-09-05T14:16:16.763Z,41.55
2022-09-05T14:18:22.693Z,40.50
2022-09-05T14:20:49.515Z,40.16
2022-09-05T14:22:56.240Z,39.41
2022-09-05T14:25:00.255Z,39.86
2022-09-05T14:27:13.748Z,39.09
2022-09-05T14:29:20.681Z,38.08
2022-09-05T14:37:39.635Z,38.59
2022-09-05T14:37:53.759Z,38.67
2022-09-05T14:37:55.240Z,38.43
2022-09-05T14:39:21.358Z,39.98
2022-09-05T14:42:07.399Z,40.44
2022-09-05T14:44:29.835Z,42.19
2022-09-05T14:47:02.221Z,41.84
2022-09-05T14:49:21.995Z,42.82
2022-09-05T14:51:43.225Z,43.25
2022-09-05T14:56:56.385Z,43.25
2022-09-05T15:02:44.772Z,43.80
2022-09-05T15:02:53.586Z,43.95
2022-09-05T15:03:23.399Z,44.09
2022-09-05T15:05:40.018Z,43.61
2022-09-05T15:07:44.917Z,42.88
2022-09-05T15:12:17.409Z,43.42
2022-09-05T15:12:33.022Z,43.33
2022-09-05T15:14:37.556Z,42.76
2022-09-05T15:16:57.972Z,42.65
2022-09-05T15:19:01.099Z,42.83
2022-09-05T15:21:33.198Z,43.01
2022-09-05T15:23:38.277Z,41.81
2022-09-05T15:25:47.462Z,41.74
2022-09-05T15:27:50.852Z,42.24
2022-09-05T15:29:55.851Z,42.45
2022-09-05T15:32:14.976Z,42.07
2022-09-05T15:34:24.714Z,42.24
2022-09-05T15:36:32.899Z,42.01
2022-09-05T15:38:56.218Z,43.18
2022-09-05T15:41:19.731Z,42.27
2022-09-05T15:43:24.921Z,42.19
2022-09-05T15:45:29.920Z,41.78
2022-09-05T15:47:35.128Z,42.18
2022-09-05T15:49:41.013Z,42.38
2022-09-05T15:51:47.217Z,42.55
2022-09-05T15:53:52.431Z,42.68
2022-09-05T15:56:03.779Z,43.09
2022-09-05T15:58:10.343Z,43.03
2022-09-05T16:00:33.578Z,43.78
2022-09-05T16:02:40.646Z,43.44
2022-09-05T16:04:47.897Z,43.15
2022-09-05T16:10:28.079Z,43.32
2022-09-05T16:10:36.336Z,43.24
2022-09-05T16:12:16.893Z,43.43
2022-09-05T16:14:24.991Z,42.65
2022-09-05T16:23:13.234Z,42.69
2022-09-05T16:23:13.911Z,43.09
2022-09-05T16:23:24.296Z,43.72
2022-09-05T16:23:46.491Z,43.74
2022-09-05T16:25:52.696Z,43.70
2022-09-05T16:27:58.576Z,43.92
2022-09-05T16:30:01.982Z,44.37
2022-09-05T16:32:16.180Z,44.15
2022-09-05T16:34:23.414Z,44.27
2022-09-05T16:36:29.424Z,44.30
2022-09-05T16:38:48.862Z,43.86
2022-09-05T16:40:54.701Z,44.56
2022-09-05T16:43:03.759Z,44.25
2022-09-05T16:45:14.139Z,44.29
2022-09-05T16:47:23.190Z,44.71
2022-09-05T16:49:41.758Z,44.47
2022-09-05T16:51:50.187Z,44.27
2022-09-05T16:53:59.034Z,45.19
2022-09-05T16:56:07.940Z,44.78
2022-09-05T16:58:15.450Z,44.34
2022-09-05T17:00:18.730Z,44.97
2022-09-05T17:02:28.286Z,44.53
2022-09-05T17:05:03.427Z,44.89
2022-09-05T17:07:17.795Z,44.83
2022-09-05T17:09:23.241Z,44.67
2022-09-05T17:11:30.055Z,44.99
2022-09-05T17:13:41.748Z,45.77
2022-09-05T17:15:51.957Z,45.70
2022-09-05T17:18:22.597Z,46.24
2022-09-05T17:20:27.647Z,47.13
2022-09-05T17:24:30.507Z,47.64
2022-09-05T17:29:26.226Z,47.37
2022-09-05T17:29:30.405Z,47.01
2022-09-05T17:32:29.513Z,48.02
2022-09-05T17:34:49.634Z,48.02
2022-09-05T17:37:14.820Z,48.67
2022-09-05T17:39:44.136Z,50.20
2022-09-05T17:42:00.330Z,49.85
2022-09-05T17:44:10.409Z,52.23
2022-09-05T17:46:18.853Z,52.13
2022-09-05T17:49:18.523Z,50.70
2022-09-05T17:52:06.861Z,49.77
2022-09-05T17:54:28.529Z,50.46
2022-09-05T17:56:34.946Z,51.49
2022-09-05T17:58:50.176Z,51.78
2022-09-05T18:01:05.601Z,52.11
2022-09-05T18:03:08.775Z,51.11
2022-09-05T18:05:47.978Z,50.85
2022-09-05T18:07:58.107Z,51.02
2022-09-05T18:10:14.674Z,51.39
2022-09-05T18:15:04.842Z,51.21
2022-09-05T18:17:52.382Z,52.01
2022-09-05T18:20:06.504Z,52.82
2022-09-05T18:22:22.374Z,51.66
2022-09-05T18:24:42.366Z,51.38
2022-09-05T18:26:53.311Z,52.47
2022-09-05T18:29:01.913Z,53.61
2022-09-05T18:31:43.792Z,54.63
2022-09-05T18:34:38.810Z,54.66
2022-09-05T18:36:42.407Z,53.95
2022-09-05T18:38:50.787Z,53.96
2022-09-05T18:41:12.382Z,54.47
2022-09-05T18:43:25.077Z,54.07
2022-09-05T18:45:33.873Z,55.38
2022-09-05T18:47:51.287Z,55.42
2022-09-05T18:50:25.014Z,54.68
2022-09-05T18:52:28.195Z,54.93
2022-09-05T18:54:34.863Z,55.82
2022-09-05T18:57:13.925Z,55.77
2022-09-05T18:59:12.157Z,57.72
2022-09-05T19:01:25.824Z,56.62
2022-09-05T19:03:33.027Z,57.45
2022-09-05T19:05:40.874Z,56.95
2022-09-05T19:07:48.347Z,58.03
2022-09-05T19:10:33.917Z,58.44
2022-09-05T19:12:33.143Z,58.05
2022-09-05T19:14:46.256Z,59.28
2022-09-05T19:16:50.204Z,59.03
2022-09-05T19:19:08.869Z,59.75
2022-09-05T19:21:16.807Z,59.90
2022-09-05T19:23:23.220Z,60.31
2022-09-05T19:25:30.620Z,59.95
2022-09-05T19:32:37.464Z,60.83
2022-09-05T19:36:50.326Z,60.83
2022-09-05T19:37:05.141Z,61.17
2022-09-05T19:37:08.542Z,60.56
2022-09-05T19:37:29.468Z,61.83
2022-09-05T19:46:15.451Z,62.20
2022-09-05T19:47:46.499Z,63.08
2022-09-05T19:47:48.808Z,62.69
2022-09-05T19:47:51.862Z,62.65
2022-09-05T19:49:22.238Z,63.37
2022-09-05T19:51:26.992Z,63.15
2022-09-05T19:53:30.360Z,64.07
2022-09-05T19:55:38.187Z,64.36
2022-09-05T19:57:52.634Z,63.34
2022-09-05T20:00:14.247Z,64.44
2022-09-05T20:02:24.996Z,64.58
2022-09-05T20:04:32.118Z,63.84
2022-09-05T20:06:39.672Z,64.61
2022-09-05T20:08:42.908Z,64.67
2022-09-05T20:10:46.734Z,64.73
2022-09-05T20:12:49.970Z,65.72
2022-09-05T20:14:53.201Z,66.11
2022-09-05T20:17:19.129Z,65.84
2022-09-05T20:19:29.301Z,66.34
2022-09-05T20:21:33.860Z,66.25
2022-09-05T20:23:39.798Z,66.74
2022-09-05T20:25:44.265Z,66.91
2022-09-05T20:27:47.849Z,66.64
2022-09-05T20:29:55.995Z,67.53
2022-09-05T20:32:00.780Z,66.64
2022-09-05T20:34:14.958Z,67.77
2022-09-05T20:43:11.575Z,67.22
2022-09-05T20:43:17.116Z,67.78
2022-09-05T20:43:20.996Z,67.70
2022-09-05T20:43:55.790Z,67.99
2022-09-05T20:48:21.953Z,67.78
2022-09-05T20:54:07.459Z,68.51
2022-09-05T20:54:14.955Z,68.58
2022-09-05T20:54:31.064Z,68.92
2022-09-05T20:55:46.974Z,68.15
2022-09-05T20:57:50.780Z,67.96
2022-09-05T20:59:54.091Z,69.41
2022-09-05T21:01:59.334Z,69.00
2022-09-05T21:04:05.637Z,68.47
2022-09-05T21:06:20.007Z,69.44
2022-09-05T21:08:33.010Z,68.86
2022-09-05T21:10:55.051Z,69.47
2022-09-05T21:13:00.058Z,68.95
2022-09-05T21:15:31.726Z,69.57
2022-09-05T21:17:32.183Z,70.21
2022-09-05T21:19:37.359Z,69.59
2022-09-05T21:21:40.772Z,70.10
2022-09-05T21:23:44.253Z,71.00
2022-09-05T21:25:50.009Z,70.45
2022-09-05T21:28:00.940Z,70.89
2022-09-05T21:30:24.219Z,70.84
2022-09-05T21:32:38.298Z,70.53
2022-09-05T21:34:48.473Z,70.17
2022-09-05T21:37:07.644Z,70.32
2022-09-05T21:39:11.238Z,71.22
2022-09-05T21:41:17.255Z,71.41
2022-09-05T21:47:35.623Z,71.57
2022-09-05T21:47:48.043Z,70.37
2022-09-05T21:48:07.876Z,71.58
2022-09-05T21:50:14.051Z,71.05
2022-09-05T21:52:34.701Z,71.26
2022-09-05T21:59:13.804Z,71.21
2022-09-05T21:59:25.145Z,71.32
2022-09-05T21:59:46.980Z,71.20
2022-09-05T22:01:53.130Z,72.63
2022-09-05T22:03:58.156Z,71.78
2022-09-05T22:06:07.381Z,72.61
2022-09-05T22:08:13.223Z,72.99
2022-09-05T22:10:16.753Z,72.54
2022-09-05T22:12:30.148Z,72.09
2022-09-05T22:14:34.341Z,72.55
2022-09-05T22:16:45.188Z,73.23
2022-09-05T22:18:49.784Z,73.12
2022-09-05T22:21:29.562Z,73.53
2022-09-05T22:23:18.480Z,71.81
2022-09-05T22:25:28.070Z,72.76
2022-09-05T22:27:32.744Z,73.48
2022-09-05T22:29:36.095Z,72.98
2022-09-05T22:31:39.368Z,72.47
2022-09-05T22:33:42.611Z,72.62
2022-09-05T22:35:45.696Z,73.01
2022-09-05T22:37:49.438Z,72.85
2022-09-05T22:40:04.989Z,73.54
2022-09-05T22:42:10.546Z,73.75
2022-09-05T22:44:14.143Z,73.50
2022-09-05T22:46:17.485Z,73.91
2022-09-05T22:48:20.648Z,72.62
2022-09-05T22:50:24.104Z,72.73
2022-09-05T22:52:27.140Z,73.30
2022-09-05T22:54:30.210Z,74.59
2022-09-05T22:56:36.648Z,73.16
2022-09-05T22:58:41.111Z,74.36
2022-09-05T23:00:45.023Z,73.94
2022-09-05T23:02:52.456Z,74.05
2022-09-05T23:04:56.024Z,74.71
2022-09-05T23:07:02.566Z,74.16
2022-09-05T23:09:05.625Z,73.98
2022-09-05T23:11:09.470Z,74.00
2022-09-05T23:13:13.922Z,74.58
2022-09-05T23:15:17.074Z,74.45
2022-09-05T23:17:20.219Z,75.61
2022-09-05T23:19:23.290Z,76.03
2022-09-05T23:21:26.487Z,75.44
2022-09-05T23:23:29.810Z,75.34
2022-09-05T23:25:33.553Z,75.69
2022-09-05T23:27:37.703Z,76.00
2022-09-05T23:29:42.088Z,76.52
2022-09-05T23:31:45.147Z,74.75
2022-09-05T23:33:48.311Z,75.60
2022-09-05T23:35:51.316Z,75.75
2022-09-05T23:37:54.459Z,76.13
2022-09-05T23:39:57.975Z,75.77
2022-09-05T23:42:01.042Z,75.76
2022-09-05T23:44:04.159Z,76.52
2022-09-05T23:46:08.978Z,75.92
2022-09-05T23:48:12.226Z,75.31
2022-09-05T23:50:15.565Z,75.22
2022-09-05T23:52:18.582Z,75.47
2022-09-05T23:54:21.659Z,75.98
2022-09-05T23:56:24.905Z,75.79
2022-09-05T23:58:28.942Z,75.91
